Time,TemperatureF,DewpointF,PressureIn,WindDirection,WindDirectionDegrees,WindSpeedMPH,WindSpeedGustMPH,Humidity,HourlyPrecipIn,Conditions,Clouds,dailyrainin,SolarRadiationWatts/m^2,SoftwareType,DateUTC
2013-06-12 00:33:00,60.0,37.0,-100.00,ESE,102,3.0,4.0,42,0.00,,,0.00,8.000000,,2013-06-12 08:33:00,
2013-06-12 00:43:00,60.0,37.0,-100.00,ESE,102,3.0,4.0,42,0.00,,,0.00,8.000000,,2013-06-12 08:43:00,
2013-06-12 00:53:00,60.0,37.0,-100.00,ESE,102,3.0,4.0,42,0.00,,,0.00,8.000000,,2013-06-12 08:53:00,
2013-06-12 01:22:00,59.0,36.0,-100.00,SE,143,4.0,6.0,42,0.00,,,-99.99,0.000000,,2013-06-12 09:22:00,
2013-06-12 01:33:00,59.0,36.0,-100.00,SE,143,4.0,6.0,42,0.00,,,-99.99,0.000000,,2013-06-12 09:33:00,
2013-06-12 01:42:00,59.0,36.0,-100.00,SE,143,4.0,6.0,42,0.00,,,-99.99,0.000000,,2013-06-12 09:42:00,
2013-06-12 01:53:00,59.0,36.0,-100.00,SE,143,4.0,6.0,42,0.00,,,-99.99,0.000000,,2013-06-12 09:53:00,
2013-06-12 02:33:00,59.0,37.0,-100.00,South,171,4.0,7.0,43,0.00,,,0.00,0.000000,,2013-06-12 10:33:00,
2013-06-12 02:43:00,59.0,37.0,-100.00,South,171,4.0,7.0,43,0.00,,,0.00,0.000000,,2013-06-12 10:43:00,
2013-06-12 02:53:00,59.0,37.0,-100.00,South,171,4.0,7.0,43,0.00,,,0.00,0.000000,,2013-06-12 10:53:00,
2013-06-12 03:24:00,59.0,37.0,-100.00,South,176,5.0,8.0,43,0.00,,,0.00,0.000000,,2013-06-12 11:24:00,
2013-06-12 03:33:00,59.0,37.0,-100.00,South,176,5.0,8.0,43,0.00,,,0.00,0.000000,,2013-06-12 11:33:00,
2013-06-12 03:43:00,59.0,37.0,-100.00,South,176,5.0,8.0,43,0.00,,,0.00,0.000000,,2013-06-12 11:43:00,
2013-06-12 03:53:00,59.0,37.0,-100.00,South,176,5.0,8.0,43,0.00,,,0.00,0.000000,,2013-06-12 11:53:00,
2013-06-12 04:33:00,56.0,36.0,-100.00,SSW,203,4.0,7.0,46,0.00,,,0.00,0.000000,,2013-06-12 12:33:00,
2013-06-12 04:42:00,56.0,36.0,-100.00,SSW,203,4.0,7.0,46,0.00,,,0.00,0.000000,,2013-06-12 12:42:00,
2013-06-12 04:53:00,56.0,36.0,-100.00,SSW,203,4.0,7.0,46,0.00,,,0.00,0.000000,,2013-06-12 12:53:00,
2013-06-12 05:32:00,57.0,39.0,-100.00,South,177,6.0,9.0,51,0.00,,,0.00,5.000000,,2013-06-12 13:32:00,
2013-06-12 05:43:00,57.0,39.0,-100.00,South,177,6.0,9.0,51,0.00,,,0.00,5.000000,,2013-06-12 13:43:00,
2013-06-12 05:53:00,57.0,39.0,-100.00,South,177,6.0,9.0,51,0.00,,,0.00,5.000000,,2013-06-12 13:53:00,
2013-06-12 06:23:00,56.0,39.0,-100.00,South,185,6.0,10.0,52,0.00,,,0.00,23.000000,,2013-06-12 14:23:00,
2013-06-12 06:33:00,56.0,39.0,-100.00,South,185,6.0,10.0,52,0.00,,,0.00,23.000000,,2013-06-12 14:33:00,
2013-06-12 06:43:00,56.0,39.0,-100.00,South,185,6.0,10.0,52,0.00,,,0.00,23.000000,,2013-06-12 14:43:00,
2013-06-12 06:53:00,56.0,39.0,-100.00,South,185,6.0,10.0,52,0.00,,,0.00,23.000000,,2013-06-12 14:53:00,
2013-06-12 07:23:00,56.0,39.0,-100.00,South,190,4.0,9.0,52,0.00,,,0.00,72.000000,,2013-06-12 15:23:00,
2013-06-12 07:33:00,56.0,39.0,-100.00,South,190,4.0,9.0,52,0.00,,,0.00,72.000000,,2013-06-12 15:33:00,
2013-06-12 07:43:00,56.0,39.0,-100.00,South,190,4.0,9.0,52,0.00,,,0.00,72.000000,,2013-06-12 15:43:00,
2013-06-12 07:52:00,56.0,39.0,-100.00,South,190,4.0,9.0,52,0.00,,,0.00,72.000000,,2013-06-12 15:52:00,
2013-06-12 08:21:00,59.0,40.0,-100.00,SW,226,3.0,6.0,50,0.00,,,0.00,228.000000,,2013-06-12 16:21:00,
2013-06-12 08:32:00,59.0,40.0,-100.00,SW,226,3.0,6.0,50,0.00,,,0.00,228.000000,,2013-06-12 16:32:00,
2013-06-12 08:43:00,59.0,40.0,-100.00,SW,226,3.0,6.0,50,0.00,,,0.00,228.000000,,2013-06-12 16:43:00,
2013-06-12 08:52:00,59.0,40.0,-100.00,SW,226,3.0,6.0,50,0.00,,,0.00,228.000000,,2013-06-12 16:52:00,
2013-06-12 09:22:00,61.0,42.0,-100.00,WSW,254,2.0,5.0,50,0.00,,,0.00,356.000000,,2013-06-12 17:22:00,
2013-06-12 09:33:00,61.0,42.0,-100.00,WSW,254,2.0,5.0,50,0.00,,,0.00,356.000000,,2013-06-12 17:33:00,
2013-06-12 09:42:00,61.0,42.0,-100.00,WSW,254,2.0,5.0,50,0.00,,,0.00,356.000000,,2013-06-12 17:42:00,
2013-06-12 09:52:00,61.0,42.0,-100.00,WSW,254,2.0,5.0,50,0.00,,,0.00,356.000000,,2013-06-12 17:52:00,
2013-06-12 10:22:00,63.0,42.0,-100.00,West,259,3.0,6.0,46,0.00,,,0.00,504.000000,,2013-06-12 18:22:00,
2013-06-12 10:32:00,63.0,42.0,-100.00,West,259,3.0,6.0,46,0.00,,,0.00,504.000000,,2013-06-12 18:32:00,
2013-06-12 10:43:00,63.0,42.0,-100.00,West,259,3.0,6.0,46,0.00,,,0.00,504.000000,,2013-06-12 18:43:00,
2013-06-12 10:53:00,63.0,42.0,-100.00,West,259,3.0,6.0,46,0.00,,,0.00,504.000000,,2013-06-12 18:53:00,
2013-06-12 11:22:00,66.0,43.0,-100.00,West,267,3.0,6.0,44,0.00,,,0.00,623.000000,,2013-06-12 19:22:00,
2013-06-12 11:32:00,66.0,43.0,-100.00,West,267,3.0,6.0,44,0.00,,,0.00,623.000000,,2013-06-12 19:32:00,
2013-06-12 11:42:00,66.0,43.0,-100.00,West,267,3.0,6.0,44,0.00,,,0.00,623.000000,,2013-06-12 19:42:00,
2013-06-12 11:52:00,66.0,43.0,-100.00,West,267,3.0,6.0,44,0.00,,,0.00,623.000000,,2013-06-12 19:52:00,
2013-06-12 12:21:00,67.0,41.0,-100.00,SW,230,4.0,7.0,39,0.00,,,0.00,723.000000,,2013-06-12 20:21:00,
2013-06-12 12:32:00,67.0,41.0,-100.00,SW,230,4.0,7.0,39,0.00,,,0.00,723.000000,,2013-06-12 20:32:00,
2013-06-12 12:42:00,67.0,41.0,-100.00,SW,230,4.0,7.0,39,0.00,,,0.00,723.000000,,2013-06-12 20:42:00,
2013-06-12 12:54:00,67.0,41.0,-100.00,SW,230,4.0,7.0,39,0.00,,,0.00,723.000000,,2013-06-12 20:54:00,
2013-06-12 13:21:00,68.0,42.0,-100.00,SW,228,5.0,10.0,39,0.00,,,0.00,797.000000,,2013-06-12 21:21:00,
2013-06-12 13:33:00,68.0,42.0,-100.00,SW,228,5.0,10.0,39,0.00,,,0.00,797.000000,,2013-06-12 21:33:00,
2013-06-12 13:43:00,68.0,42.0,-100.00,SW,228,5.0,10.0,39,0.00,,,0.00,797.000000,,2013-06-12 21:43:00,
2013-06-12 13:52:00,68.0,42.0,-100.00,SW,228,5.0,10.0,39,0.00,,,0.00,797.000000,,2013-06-12 21:52:00,
2013-06-12 14:32:00,70.0,41.0,-100.00,SW,232,5.0,9.0,35,0.00,,,0.00,841.000000,,2013-06-12 22:32:00,
2013-06-12 14:43:00,70.0,41.0,-100.00,SW,232,5.0,9.0,35,0.00,,,0.00,841.000000,,2013-06-12 22:43:00,
2013-06-12 14:52:00,70.0,41.0,-100.00,SW,232,5.0,9.0,35,0.00,,,0.00,841.000000,,2013-06-12 22:52:00,
2013-06-12 15:22:00,72.0,38.0,-100.00,SW,221,6.0,10.0,29,0.00,,,0.00,848.000000,,2013-06-12 23:22:00,
2013-06-12 15:32:00,72.0,38.0,-100.00,SW,221,6.0,10.0,29,0.00,,,0.00,848.000000,,2013-06-12 23:32:00,
2013-06-12 15:42:00,72.0,38.0,-100.00,SW,221,6.0,10.0,29,0.00,,,0.00,848.000000,,2013-06-12 23:42:00,
2013-06-12 15:52:00,72.0,38.0,-100.00,SW,221,6.0,10.0,29,0.00,,,0.00,848.000000,,2013-06-12 23:52:00,
2013-06-12 16:22:00,72.0,37.0,-100.00,SSW,210,5.0,9.0,28,0.00,,,0.00,821.000000,,2013-06-13 00:22:00,
2013-06-12 16:32:00,72.0,37.0,-100.00,SSW,210,5.0,9.0,28,0.00,,,0.00,821.000000,,2013-06-13 00:32:00,
2013-06-12 16:42:00,72.0,37.0,-100.00,SSW,210,5.0,9.0,28,0.00,,,0.00,821.000000,,2013-06-13 00:42:00,
2013-06-12 16:52:00,72.0,37.0,-100.00,SSW,210,5.0,9.0,28,0.00,,,0.00,821.000000,,2013-06-13 00:52:00,
2013-06-12 17:32:00,74.0,37.0,-100.00,WSW,249,5.0,9.0,26,0.00,,,0.00,758.000000,,2013-06-13 01:32:00,
2013-06-12 17:42:00,74.0,37.0,-100.00,WSW,249,5.0,9.0,26,0.00,,,0.00,758.000000,,2013-06-13 01:42:00,
2013-06-12 17:53:00,74.0,37.0,-100.00,WSW,249,5.0,9.0,26,0.00,,,0.00,758.000000,,2013-06-13 01:53:00,
2013-06-12 18:22:00,73.0,34.0,-100.00,SW,214,6.0,10.0,24,0.00,,,0.00,660.000000,,2013-06-13 02:22:00,
2013-06-12 18:33:00,73.0,34.0,-100.00,SW,214,6.0,10.0,24,0.00,,,0.00,660.000000,,2013-06-13 02:33:00,
2013-06-12 18:42:00,73.0,34.0,-100.00,SW,214,6.0,10.0,24,0.00,,,0.00,660.000000,,2013-06-13 02:42:00,
2013-06-12 18:52:00,73.0,34.0,-100.00,SW,214,6.0,10.0,24,0.00,,,0.00,660.000000,,2013-06-13 02:52:00,
2013-06-12 19:22:00,73.0,32.0,-100.00,West,271,4.0,10.0,22,0.00,,,0.00,541.000000,,2013-06-13 03:22:00,
2013-06-12 19:33:00,73.0,32.0,-100.00,West,271,4.0,10.0,22,0.00,,,0.00,541.000000,,2013-06-13 03:33:00,
2013-06-12 19:42:00,73.0,32.0,-100.00,West,271,4.0,10.0,22,0.00,,,0.00,541.000000,,2013-06-13 03:42:00,
2013-06-12 19:52:00,73.0,32.0,-100.00,West,271,4.0,10.0,22,0.00,,,0.00,541.000000,,2013-06-13 03:52:00,
2013-06-12 20:22:00,73.0,31.0,-100.00,SW,228,5.0,8.0,21,0.00,,,0.00,411.000000,,2013-06-13 04:22:00,
2013-06-12 20:32:00,73.0,31.0,-100.00,SW,228,5.0,8.0,21,0.00,,,0.00,411.000000,,2013-06-13 04:32:00,
2013-06-12 20:43:00,73.0,31.0,-100.00,SW,228,5.0,8.0,21,0.00,,,0.00,411.000000,,2013-06-13 04:43:00,
2013-06-12 20:53:00,73.0,31.0,-100.00,SW,228,5.0,8.0,21,0.00,,,0.00,411.000000,,2013-06-13 04:53:00,
2013-06-12 21:23:00,72.0,31.0,-100.00,WSW,239,3.0,7.0,22,0.00,,,0.00,281.000000,,2013-06-13 05:23:00,
2013-06-12 21:33:00,72.0,31.0,-100.00,WSW,239,3.0,7.0,22,0.00,,,0.00,281.000000,,2013-06-13 05:33:00,
2013-06-12 21:42:00,72.0,31.0,-100.00,WSW,239,3.0,7.0,22,0.00,,,0.00,281.000000,,2013-06-13 05:42:00,
2013-06-12 21:53:00,72.0,31.0,-100.00,WSW,239,3.0,7.0,22,0.00,,,0.00,281.000000,,2013-06-13 05:53:00,
2013-06-12 22:33:00,70.0,28.0,-100.00,NNW,336,3.0,6.0,21,0.00,,,0.00,146.000000,,2013-06-13 06:33:00,
2013-06-12 22:44:00,70.0,28.0,-100.00,NNW,336,3.0,6.0,21,0.00,,,0.00,146.000000,,2013-06-13 06:44:00,
2013-06-12 22:52:00,70.0,28.0,-100.00,NNW,336,3.0,6.0,21,0.00,,,0.00,146.000000,,2013-06-13 06:52:00,
2013-06-12 23:33:00,66.0,28.0,-100.00,ESE,112,4.0,6.0,24,0.00,,,0.00,47.000000,,2013-06-13 07:33:00,
2013-06-12 23:42:00,66.0,28.0,-100.00,ESE,112,4.0,6.0,24,0.00,,,0.00,47.000000,,2013-06-13 07:42:00,
2013-06-12 23:52:00,66.0,28.0,-100.00,ESE,112,4.0,6.0,24,0.00,,,0.00,47.000000,,2013-06-13 07:52:00,